createdAt,value
2022-09-23T00:01:29.494Z,99584.41
2022-09-23T00:04:02.941Z,99559.66
2022-09-23T00:06:34.119Z,99593.22
2022-09-23T00:09:08.693Z,99528.78
2022-09-23T00:11:39.071Z,99564.75
2022-09-23T00:14:13.469Z,99585.28
2022-09-23T00:16:42.265Z,99587.03
2022-09-23T00:19:13.515Z,99590.41
2022-09-23T00:21:42.950Z,99586.00
2022-09-23T00:24:11.466Z,99566.38
2022-09-23T00:26:48.787Z,99586.94
2022-09-23T00:29:21.831Z,99590.47
2022-09-23T00:31:50.212Z,99531.47
2022-09-23T00:34:24.300Z,99564.16
2022-09-23T00:36:54.876Z,99547.13
2022-09-23T00:39:23.262Z,99595.97
2022-09-23T00:41:51.961Z,99563.38
2022-09-23T00:44:46.349Z,99596.00
2022-09-23T00:47:23.190Z,99594.34
2022-09-23T00:50:02.350Z,99576.44
2022-09-23T00:52:32.960Z,99596.16
2022-09-23T00:55:05.658Z,99594.53
2022-09-23T00:57:40.477Z,99587.75
2022-09-23T01:00:13.479Z,99553.47
2022-09-23T01:02:42.511Z,99599.75
2022-09-23T01:05:19.017Z,99598.84
2022-09-23T01:07:50.984Z,99600.63
2022-09-23T01:10:27.229Z,99599.78
2022-09-23T01:13:08.722Z,99587.88
2022-09-23T01:15:42.957Z,99607.59
2022-09-23T01:18:22.435Z,99603.38
2022-09-23T01:21:03.647Z,99582.81
2022-09-23T01:24:18.089Z,99592.19
2022-09-23T01:27:13.930Z,99598.34
2022-09-23T01:30:14.702Z,99580.38
2022-09-23T01:33:14.934Z,99584.69
2022-09-23T01:35:56.721Z,99613.00
2022-09-23T01:38:37.879Z,99585.53
2022-09-23T01:41:15.561Z,99570.13
2022-09-23T01:43:53.192Z,99613.03
2022-09-23T01:46:33.953Z,99590.66
2022-09-23T01:49:09.162Z,99604.34
2022-09-23T01:51:45.589Z,99611.13
2022-09-23T01:54:18.471Z,99613.72
2022-09-23T01:56:55.536Z,99613.78
2022-09-23T01:59:33.214Z,99617.22
2022-09-23T02:02:08.281Z,99619.03
2022-09-23T02:04:51.569Z,99596.66
2022-09-23T02:07:28.656Z,99581.19
2022-09-23T02:10:02.457Z,99606.94
2022-09-23T02:12:34.580Z,99609.47
2022-09-23T02:15:08.396Z,99541.72
2022-09-23T02:17:44.118Z,99609.41
2022-09-23T02:20:15.962Z,99572.56
2022-09-23T02:22:58.251Z,99594.94
2022-09-23T02:25:35.123Z,99617.25
2022-09-23T02:28:10.154Z,99567.50
2022-09-23T02:30:46.881Z,99518.63
2022-09-23T02:33:23.182Z,99599.25
2022-09-23T02:35:59.517Z,99557.19
2022-09-23T02:38:44.652Z,99490.38
2022-09-23T02:41:20.202Z,99542.56
2022-09-23T02:43:57.915Z,99603.38
2022-09-23T02:46:26.621Z,99540.78
2022-09-23T02:49:01.069Z,99572.50
2022-09-23T02:51:38.010Z,99580.22
2022-09-23T02:54:22.308Z,99608.53
2022-09-23T02:56:51.004Z,99572.50
2022-09-23T02:59:20.352Z,99610.13
2022-09-23T03:01:58.688Z,99566.34
2022-09-23T03:04:39.424Z,99605.78
2022-09-23T03:07:21.114Z,99596.38
2022-09-23T03:09:56.307Z,99609.25
2022-09-23T03:12:50.254Z,99578.44
2022-09-23T03:15:29.918Z,99607.69
2022-09-23T03:18:06.119Z,99576.03
2022-09-23T03:20:43.847Z,99541.72
2022-09-23T03:23:19.176Z,99519.44
2022-09-23T03:25:53.157Z,99588.97
2022-09-23T03:28:22.943Z,99573.53
2022-09-23T03:30:55.129Z,99617.25
2022-09-23T03:33:30.599Z,99612.94
2022-09-23T03:36:23.558Z,99616.44
2022-09-23T03:39:03.950Z,99616.38
2022-09-23T03:41:45.712Z,99586.28
2022-09-23T03:44:15.699Z,99600.06
2022-09-23T03:46:50.007Z,99611.13
2022-09-23T03:49:27.409Z,99579.34
2022-09-23T03:52:01.200Z,99587.09
2022-09-23T03:54:34.142Z,99605.94
2022-09-23T03:57:08.120Z,99612.91
2022-09-23T03:59:39.688Z,99592.38
2022-09-23T04:02:09.623Z,99576.16
2022-09-23T04:04:39.083Z,99571.84
2022-09-23T04:07:08.331Z,99607.88
2022-09-23T04:09:39.797Z,99606.88
2022-09-23T04:12:16.207Z,99605.94
2022-09-23T04:14:51.991Z,99606.81
2022-09-23T04:17:26.992Z,99581.09
2022-09-23T04:19:57.831Z,99558.63
2022-09-23T04:22:26.303Z,99585.09
2022-09-23T04:25:00.426Z,99581.59
2022-09-23T04:27:37.478Z,99596.25
2022-09-23T04:30:09.295Z,99595.44
2022-09-23T04:33:06.599Z,99596.38
2022-09-23T04:35:40.352Z,99525.13
2022-09-23T04:38:12.836Z,99590.28
2022-09-23T04:40:44.335Z,99572.22
2022-09-23T04:43:15.985Z,99543.72
2022-09-23T04:45:48.039Z,99559.94
2022-09-23T04:48:19.384Z,99570.25
2022-09-23T04:50:51.717Z,99541.06
2022-09-23T04:53:21.439Z,99571.03
2022-09-23T04:55:56.916Z,99557.22
2022-09-23T04:58:31.647Z,99451.78
2022-09-23T05:01:05.210Z,99555.34
2022-09-23T05:03:43.343Z,99501.16
2022-09-23T05:06:15.961Z,99556.53
2022-09-23T05:08:55.531Z,99431.28
2022-09-23T05:11:27.520Z,99562.13
2022-09-23T05:14:02.278Z,99564.66
2022-09-23T05:16:36.091Z,99511.19
2022-09-23T05:19:04.901Z,99565.13
2022-09-23T05:21:45.967Z,99550.50
2022-09-23T05:24:19.407Z,99561.19
2022-09-23T05:26:54.686Z,99541.78
2022-09-23T05:29:23.170Z,99567.00
2022-09-23T05:31:54.340Z,99533.25
2022-09-23T05:34:25.301Z,99545.72
2022-09-23T05:37:00.209Z,99562.31
2022-09-23T05:39:29.182Z,99533.00
2022-09-23T05:42:03.397Z,99563.53
2022-09-23T05:44:33.051Z,99519.41
2022-09-23T05:47:04.760Z,99556.22
2022-09-23T05:49:57.988Z,99478.25
2022-09-23T05:52:26.123Z,99523.59
2022-09-23T05:55:07.646Z,99539.66
2022-09-23T05:57:40.214Z,99439.69
2022-09-23T06:00:25.805Z,99535.75
2022-09-23T06:02:56.718Z,99538.19
2022-09-23T06:05:33.911Z,99559.81
2022-09-23T06:08:03.932Z,99569.00
2022-09-23T06:10:32.444Z,99571.25
2022-09-23T06:13:11.550Z,99559.44
2022-09-23T06:15:44.631Z,99482.94
2022-09-23T06:18:16.250Z,99563.72
2022-09-23T06:20:51.024Z,99553.22
2022-09-23T06:23:22.315Z,99544.56
2022-09-23T06:25:52.303Z,99568.06
2022-09-23T06:28:32.479Z,99564.81
2022-09-23T06:31:12.285Z,99531.16
2022-09-23T06:33:43.092Z,99575.22
2022-09-23T06:36:12.640Z,99575.53
2022-09-23T06:38:41.990Z,99583.97
2022-09-23T06:41:12.802Z,99594.88
2022-09-23T06:43:43.935Z,99588.31
2022-09-23T06:46:15.874Z,99549.63
2022-09-23T06:48:46.354Z,99574.16
2022-09-23T06:51:20.344Z,99567.44
2022-09-23T06:53:55.713Z,99556.47
2022-09-23T06:56:37.981Z,99541.19
2022-09-23T06:59:18.720Z,99567.69
2022-09-23T07:01:51.085Z,99570.41
2022-09-23T07:04:25.044Z,99559.22
2022-09-23T07:06:57.279Z,99570.81
2022-09-23T07:09:29.351Z,99534.22
2022-09-23T07:12:02.996Z,99528.88
2022-09-23T07:14:36.836Z,99565.78
2022-09-23T07:17:09.967Z,99539.88
2022-09-23T07:19:38.425Z,99585.38
2022-09-23T07:22:08.074Z,99547.25
2022-09-23T07:24:39.141Z,99502.56
2022-09-23T07:27:07.760Z,99555.16
2022-09-23T07:29:46.074Z,99502.00
2022-09-23T07:32:25.581Z,99587.56
2022-09-23T07:34:58.383Z,99459.81
2022-09-23T07:37:41.246Z,99549.53
2022-09-23T07:40:14.875Z,99524.88
2022-09-23T07:42:45.668Z,99576.41
2022-09-23T07:45:25.189Z,99570.47
2022-09-23T07:47:55.425Z,99578.34
2022-09-23T07:50:25.946Z,99537.31
2022-09-23T07:53:03.133Z,99554.94
2022-09-23T07:55:32.309Z,99566.31
2022-09-23T07:58:01.840Z,99574.38
2022-09-23T08:00:33.885Z,99579.44
2022-09-23T08:03:03.038Z,99574.69
2022-09-23T08:05:32.092Z,99564.41
2022-09-23T08:08:03.060Z,99543.59
2022-09-23T08:10:34.541Z,99564.63
2022-09-23T08:13:03.645Z,99547.25
2022-09-23T08:15:34.494Z,99490.44
2022-09-23T08:18:05.953Z,99548.84
2022-09-23T08:20:47.967Z,99535.88
2022-09-23T08:23:20.598Z,99547.34
2022-09-23T08:25:52.945Z,99560.44
2022-09-23T08:28:22.113Z,99555.53
2022-09-23T08:30:58.599Z,99558.09
2022-09-23T08:33:36.365Z,99555.81
2022-09-23T08:36:09.170Z,99549.50
2022-09-23T08:38:37.644Z,99535.19
2022-09-23T08:41:19.658Z,99549.44
2022-09-23T08:43:51.007Z,99516.38
2022-09-23T08:46:29.511Z,99557.31
2022-09-23T08:49:03.523Z,99517.56
2022-09-23T08:51:40.314Z,99557.88
2022-09-23T08:54:22.064Z,99535.97
2022-09-23T08:56:57.319Z,99463.13
2022-09-23T08:59:33.456Z,99527.25
2022-09-23T09:02:10.662Z,99569.56
2022-09-23T09:04:47.323Z,99529.75
2022-09-23T09:07:37.112Z,99582.03
2022-09-23T09:10:13.597Z,99533.69
2022-09-23T09:12:47.654Z,99529.34
2022-09-23T09:15:24.617Z,99569.81
2022-09-23T09:18:16.612Z,99507.06
2022-09-23T09:20:51.743Z,99531.09
2022-09-23T09:23:30.314Z,99544.19
2022-09-23T09:26:00.823Z,99483.66
2022-09-23T09:28:35.914Z,99529.19
2022-09-23T09:31:15.532Z,99517.50
2022-09-23T09:33:54.571Z,99521.09
2022-09-23T09:36:37.858Z,99482.88
2022-09-23T09:39:10.140Z,99456.38
2022-09-23T09:41:39.664Z,99505.44
2022-09-23T09:44:18.682Z,99472.72
2022-09-23T09:47:02.114Z,99461.75
2022-09-23T09:49:44.316Z,99511.97
2022-09-23T09:52:23.880Z,99519.97
2022-09-23T09:54:53.233Z,99482.78
2022-09-23T09:57:35.254Z,99452.72
2022-09-23T10:00:40.056Z,99500.56
2022-09-23T10:03:27.930Z,99464.13
2022-09-23T10:06:02.554Z,99523.00
2022-09-23T10:08:37.825Z,99527.63
2022-09-23T10:11:08.253Z,99515.47
2022-09-23T10:14:06.919Z,99486.63
2022-09-23T10:16:40.142Z,99397.66
2022-09-23T10:19:35.230Z,99506.78
2022-09-23T10:22:21.944Z,99493.00
2022-09-23T10:24:57.053Z,99515.28
2022-09-23T10:27:36.869Z,99487.97
2022-09-23T10:30:12.173Z,99527.16
2022-09-23T10:32:48.156Z,99503.56
2022-09-23T10:35:28.584Z,99517.88
2022-09-23T10:38:05.079Z,99516.75
2022-09-23T10:40:56.542Z,99534.13
2022-09-23T10:43:50.188Z,99515.53
2022-09-23T10:46:38.508Z,99511.50
2022-09-23T10:49:33.190Z,99501.09
2022-09-23T10:52:19.114Z,99507.44
2022-09-23T10:55:01.044Z,99480.81
2022-09-23T10:57:46.460Z,99490.84
2022-09-23T11:00:29.277Z,99486.06
2022-09-23T11:03:24.640Z,99477.19
2022-09-23T11:06:04.112Z,99464.03
2022-09-23T11:08:52.216Z,99414.38
2022-09-23T11:11:36.488Z,99481.78
2022-09-23T11:14:25.558Z,99474.13
2022-09-23T11:17:15.134Z,99417.47
2022-09-23T11:20:12.134Z,99467.13
2022-09-23T11:23:00.864Z,99411.09
2022-09-23T11:25:46.051Z,99432.59
2022-09-23T11:28:54.621Z,99455.41
2022-09-23T11:31:32.024Z,99440.91
2022-09-23T11:34:20.275Z,99445.25
2022-09-23T11:36:55.227Z,99462.94
2022-09-23T11:39:36.884Z,99467.16
2022-09-23T11:42:12.986Z,99404.63
2022-09-23T11:44:51.248Z,99429.28
2022-09-23T11:47:26.399Z,99442.84
2022-09-23T11:50:12.826Z,99429.75
2022-09-23T11:52:47.689Z,99448.78
2022-09-23T11:55:23.404Z,99431.47
2022-09-23T11:58:03.744Z,99440.59
2022-09-23T12:00:51.968Z,99415.28
2022-09-23T12:03:40.756Z,99428.22
2022-09-23T12:06:17.398Z,99450.81
2022-09-23T12:09:06.632Z,99383.31
2022-09-23T12:11:55.946Z,99379.94
2022-09-23T12:14:33.937Z,99433.63
2022-09-23T12:17:30.365Z,99452.09
2022-09-23T12:20:10.934Z,99452.66
2022-09-23T12:22:50.597Z,99438.28
2022-09-23T12:25:56.573Z,99440.19
2022-09-23T12:28:27.635Z,99446.25
2022-09-23T12:31:02.127Z,99450.84
2022-09-23T12:33:35.678Z,99438.44
2022-09-23T12:36:15.779Z,99447.34
2022-09-23T12:38:55.739Z,99444.63
2022-09-23T12:41:30.224Z,99443.81
2022-09-23T12:44:11.044Z,99446.72
2022-09-23T12:46:42.689Z,99344.75
2022-09-23T12:49:37.405Z,99436.31
2022-09-23T12:52:27.440Z,99422.19
2022-09-23T12:55:00.049Z,99378.88
2022-09-23T12:57:42.919Z,99406.19
2022-09-23T13:00:33.525Z,99394.47
2022-09-23T13:03:40.761Z,99398.09
2022-09-23T13:06:29.924Z,99417.63
2022-09-23T13:08:58.374Z,99426.28
2022-09-23T13:11:35.961Z,99403.09
2022-09-23T13:14:17.659Z,99424.66
2022-09-23T13:16:47.933Z,99419.47
2022-09-23T13:19:44.988Z,99420.19
2022-09-23T13:22:20.945Z,99413.16
2022-09-23T13:24:56.615Z,99355.84
2022-09-23T13:27:35.432Z,99385.25
2022-09-23T13:30:26.321Z,99394.81
2022-09-23T13:33:08.957Z,99297.19
2022-09-23T13:35:51.284Z,99400.66
2022-09-23T13:38:33.048Z,99356.34
2022-09-23T13:41:06.263Z,99403.31
2022-09-23T13:43:42.321Z,99379.16
2022-09-23T13:46:20.297Z,99406.50
2022-09-23T13:48:55.687Z,99326.75
2022-09-23T13:51:30.461Z,99340.56
2022-09-23T13:54:04.377Z,99405.69
2022-09-23T13:56:50.430Z,99344.91
2022-09-23T13:59:30.356Z,99297.03
2022-09-23T14:02:18.851Z,99315.75
2022-09-23T14:04:50.496Z,99386.78
2022-09-23T14:07:21.546Z,99329.66
2022-09-23T14:09:59.629Z,99377.66
2022-09-23T14:12:33.311Z,99360.34
2022-09-23T14:15:19.689Z,99376.53
2022-09-23T14:17:52.110Z,99389.34
2022-09-23T14:20:24.361Z,99307.00
2022-09-23T14:23:09.449Z,99307.28
2022-09-23T14:25:39.475Z,99268.53
2022-09-23T14:28:15.609Z,99370.94
2022-09-23T14:30:50.866Z,99223.22
2022-09-23T14:33:23.223Z,99324.97
2022-09-23T14:36:14.634Z,99313.38
2022-09-23T14:38:55.747Z,99323.16
2022-09-23T14:41:27.298Z,99299.84
2022-09-23T14:44:03.315Z,99384.88
2022-09-23T14:46:40.190Z,99343.75
2022-09-23T14:49:20.398Z,99378.91
2022-09-23T14:51:55.686Z,99377.94
2022-09-23T14:54:56.488Z,99329.59
2022-09-23T14:57:32.568Z,99376.50
2022-09-23T15:00:14.081Z,99375.97
2022-09-23T15:02:47.434Z,99317.03
2022-09-23T15:05:23.686Z,99333.13
2022-09-23T15:08:07.358Z,99323.94
2022-09-23T15:10:39.191Z,99314.56
2022-09-23T15:13:19.911Z,99323.00
2022-09-23T15:15:55.216Z,99341.94
2022-09-23T15:18:31.140Z,99352.38
2022-09-23T15:21:07.189Z,99306.16
2022-09-23T15:23:44.696Z,99358.47
2022-09-23T15:26:20.807Z,99348.06
2022-09-23T15:28:56.133Z,99347.38
2022-09-23T15:31:28.245Z,99365.63
2022-09-23T15:34:06.221Z,99368.13
2022-09-23T15:36:35.177Z,99361.44
2022-09-23T15:39:09.183Z,99317.00
2022-09-23T15:41:42.470Z,99354.78
2022-09-23T15:44:18.830Z,99279.63
2022-09-23T15:46:51.507Z,99291.47
2022-09-23T15:49:28.145Z,99372.88
2022-09-23T15:52:02.959Z,99244.56
2022-09-23T15:54:34.731Z,99327.38
2022-09-23T15:57:08.077Z,99370.28
2022-09-23T15:59:50.676Z,99366.88
2022-09-23T16:02:25.505Z,99320.72
2022-09-23T16:04:55.939Z,99337.59
2022-09-23T16:07:26.836Z,99278.59
2022-09-23T16:10:01.207Z,99305.91
2022-09-23T16:12:36.694Z,99299.53
2022-09-23T16:15:12.851Z,99352.56
2022-09-23T16:17:46.205Z,99358.69
2022-09-23T16:20:25.344Z,99293.84
2022-09-23T16:22:58.279Z,99329.72
2022-09-23T16:25:38.142Z,99317.72
2022-09-23T16:28:13.491Z,99357.13
2022-09-23T16:30:46.392Z,99315.06
2022-09-23T16:33:14.972Z,99339.84
2022-09-23T16:35:49.683Z,99319.41
2022-09-23T16:38:21.282Z,99346.00
2022-09-23T16:41:20.893Z,99254.53
2022-09-23T16:43:56.471Z,99310.97
2022-09-23T16:46:36.893Z,99333.25
2022-09-23T16:49:15.083Z,99328.09
2022-09-23T16:51:58.285Z,99330.75
2022-09-23T16:54:51.440Z,99279.41
2022-09-23T16:57:24.301Z,99315.31
2022-09-23T17:00:19.174Z,99293.19
2022-09-23T17:04:54.531Z,99190.44
2022-09-23T17:06:59.302Z,99181.22
2022-09-23T17:09:36.508Z,99307.66
2022-09-23T17:12:21.887Z,99305.09
2022-09-23T17:14:54.915Z,99292.38
2022-09-23T17:17:23.834Z,99310.41
2022-09-23T17:19:59.933Z,99233.31
2022-09-23T17:22:39.241Z,99290.69
2022-09-23T17:25:11.174Z,99301.75
2022-09-23T17:27:45.070Z,99284.69
2022-09-23T17:33:08.293Z,99292.38
2022-09-23T17:35:45.501Z,99262.38
2022-09-23T17:38:19.216Z,99191.47
2022-09-23T17:40:54.585Z,99230.00
2022-09-23T17:43:26.059Z,99243.69
2022-09-23T17:46:05.324Z,99215.41
2022-09-23T17:48:37.907Z,99203.56
2022-09-23T17:51:28.270Z,99268.50
2022-09-23T17:54:22.056Z,99278.84
2022-09-23T17:57:01.713Z,99265.13
2022-09-23T17:59:32.978Z,99270.16
2022-09-23T18:02:09.817Z,99263.19
2022-09-23T18:04:57.811Z,99277.00
2022-09-23T18:07:30.091Z,99235.78
2022-09-23T18:10:01.911Z,99132.25
2022-09-23T18:12:36.386Z,99272.72
2022-09-23T18:15:22.134Z,99179.69
2022-09-23T18:17:52.367Z,99258.31
2022-09-23T18:20:23.978Z,99174.53
2022-09-23T18:22:57.374Z,99160.91
2022-09-23T18:25:39.330Z,99250.56
2022-09-23T18:28:11.033Z,99210.59
2022-09-23T18:30:40.302Z,99256.63
2022-09-23T18:33:14.106Z,99250.63
2022-09-23T18:35:44.206Z,99190.84
2022-09-23T18:38:14.733Z,99145.38
2022-09-23T18:41:13.733Z,99162.50
2022-09-23T18:43:51.520Z,99245.38
2022-09-23T18:46:32.700Z,99246.34
2022-09-23T18:49:19.843Z,99171.88
2022-09-23T18:51:53.247Z,99250.75
2022-09-23T18:54:24.282Z,99233.50
2022-09-23T18:56:57.045Z,99231.81
2022-09-23T18:59:29.897Z,99090.69
2022-09-23T19:02:00.219Z,99175.44
2022-09-23T19:04:31.713Z,99217.22
2022-09-23T19:07:11.754Z,99221.31
2022-09-23T19:09:44.334Z,99203.50
2022-09-23T19:12:15.342Z,99177.91
2022-09-23T19:14:44.979Z,99218.03
2022-09-23T19:17:17.469Z,99203.31
2022-09-23T19:19:48.493Z,99129.75
2022-09-23T19:22:17.250Z,99072.50
2022-09-23T19:24:47.240Z,99194.81
2022-09-23T19:27:18.518Z,99188.72
2022-09-23T19:29:47.577Z,99211.00
2022-09-23T19:32:17.872Z,99197.19
2022-09-23T19:34:46.482Z,99183.44
2022-09-23T19:37:24.205Z,99147.66
2022-09-23T19:39:59.141Z,99198.81
2022-09-23T19:42:30.143Z,99198.91
2022-09-23T19:45:03.760Z,99125.34
2022-09-23T19:47:32.732Z,99103.16
2022-09-23T19:50:07.593Z,99166.34
2022-09-23T19:52:36.146Z,99184.28
2022-09-23T19:55:07.688Z,99138.19
2022-09-23T19:57:41.342Z,99178.28
2022-09-23T20:00:16.642Z,99127.84
2022-09-23T20:02:46.297Z,99098.63
2022-09-23T20:05:20.569Z,99113.78
2022-09-23T20:07:49.229Z,99154.66
2022-09-23T20:10:19.497Z,99134.00
2022-09-23T20:12:50.647Z,99152.94
2022-09-23T20:15:26.153Z,99121.22
2022-09-23T20:18:03.455Z,99133.09
2022-09-23T20:20:35.402Z,99135.66
2022-09-23T20:23:08.302Z,99116.03
2022-09-23T20:25:52.303Z,99141.84
2022-09-23T20:28:22.750Z,99135.16
2022-09-23T20:30:54.791Z,99130.97
2022-09-23T20:33:23.687Z,99132.78
2022-09-23T20:35:55.789Z,99069.53
2022-09-23T20:38:28.125Z,99091.66
2022-09-23T20:40:59.195Z,99091.56
2022-09-23T20:43:38.576Z,99046.19
2022-09-23T20:46:10.474Z,99066.75
2022-09-23T20:48:41.501Z,99102.50
2022-09-23T20:51:13.671Z,99088.63
2022-09-23T20:53:43.698Z,99063.88
2022-09-23T20:56:16.937Z,99050.22
2022-09-23T20:58:48.804Z,99088.56
2022-09-23T21:01:20.836Z,99077.28
2022-09-23T21:03:56.105Z,98975.81
2022-09-23T21:06:26.766Z,99067.06
2022-09-23T21:08:57.756Z,98934.00
2022-09-23T21:11:34.143Z,98973.91
2022-09-23T21:14:13.625Z,99062.72
2022-09-23T21:16:47.413Z,99022.69
2022-09-23T21:19:17.475Z,98924.41
2022-09-23T21:21:48.812Z,99031.00
2022-09-23T21:24:53.254Z,99006.22
2022-09-23T21:27:18.877Z,99030.19
2022-09-23T21:29:49.721Z,99048.94
2022-09-23T21:32:18.225Z,99048.09
2022-09-23T21:34:54.715Z,99039.41
2022-09-23T21:37:26.847Z,98905.34
2022-09-23T21:40:10.895Z,98933.59
2022-09-23T21:42:40.975Z,99014.78
2022-09-23T21:45:13.329Z,99029.31
2022-09-23T21:47:44.390Z,99025.97
2022-09-23T21:50:13.224Z,98973.69
2022-09-23T21:52:50.534Z,98950.59
2022-09-23T21:55:31.666Z,99013.78
2022-09-23T21:58:01.614Z,99006.84
2022-09-23T22:00:30.312Z,99007.72
2022-09-23T22:03:03.370Z,99002.59
2022-09-23T22:05:34.214Z,99000.06
2022-09-23T22:08:06.001Z,98996.72
2022-09-23T22:10:37.406Z,98974.47
2022-09-23T22:13:13.150Z,98967.59
2022-09-23T22:15:46.438Z,98891.72
2022-09-23T22:18:14.925Z,98984.78
2022-09-23T22:20:47.750Z,98941.94
2022-09-23T22:23:21.049Z,98975.19
2022-09-23T22:26:03.215Z,98965.00
2022-09-23T22:28:56.506Z,98940.94
2022-09-23T22:31:42.332Z,98952.91
2022-09-23T22:34:31.052Z,98944.41
2022-09-23T22:37:06.314Z,98944.41
2022-09-23T22:39:36.916Z,98941.97
2022-09-23T22:42:08.371Z,98935.94
2022-09-23T22:44:44.024Z,98899.16
2022-09-23T22:47:15.714Z,98928.97
2022-09-23T22:49:47.622Z,98922.19
2022-09-23T22:52:23.884Z,98865.91
2022-09-23T22:55:01.860Z,98913.75
2022-09-23T22:58:30.710Z,98804.63
2022-09-23T23:01:02.690Z,98877.06
2022-09-23T23:03:42.986Z,98900.91
2022-09-23T23:06:16.597Z,98904.44
2022-09-23T23:08:51.949Z,98899.19
2022-09-23T23:11:21.796Z,98883.66
2022-09-23T23:13:55.169Z,98840.19
2022-09-23T23:16:38.422Z,98869.91
2022-09-23T23:19:09.663Z,98835.06
2022-09-23T23:21:54.655Z,98854.75
2022-09-23T23:24:26.208Z,98847.94
2022-09-23T23:26:56.645Z,98858.03
2022-09-23T23:29:25.351Z,98864.00
2022-09-23T23:31:59.244Z,98835.81
2022-09-23T23:34:28.056Z,98858.13
2022-09-23T23:37:01.169Z,98835.91
2022-09-23T23:39:33.114Z,98857.16
2022-09-23T23:42:01.785Z,98846.78
2022-09-23T23:44:34.582Z,98842.34
2022-09-23T23:47:05.430Z,98838.00
2022-09-23T23:49:39.498Z,98794.34
2022-09-23T23:52:12.963Z,98745.66
2022-09-23T23:54:43.364Z,98750.03
2022-09-23T23:57:14.888Z,98807.75
2022-09-23T23:59:47.696Z,98794.88
